Grant, New York
Current Conditions -  °F | °C
As of 4:53 PM on Friday 31 Oct 2014 (Local Time) from KRME Reporting Station
Broken Clouds Broken Clouds  
Wind Chill: 49°   Ceiling: 11000
Heat Index: 49°   Visibility: 10mi
Dew Point: 33°   Wind: 3mph
Humidity: 54%   Direction: 80°E
Pressure: 29.95"   Gusts: NA
Location:  43.4607°N, 74.933°W
Report Text: KRME 312053Z 08003KT 10SM BKN110 09/01 A2995 RMK AO2 SLP144 T00940006 56012
Loading
Personal Weather Stations






























Interactive Weather Map New forecast layout! Learn more

10-Day Weather Forecast

Advertisements
Track Severe Weather on mobile